Time;durP1;ratioP1;P1;durP2;ratioP2;P2;SDS_P1;SDS_P2;PMS_P1;PMS_P2;Temp;Humidity;BMP_temperature;BMP_pressure;BME280_temperature;BME280_humidity;BME280_pressure;Samples;Min_cycle;Max_cycle;Signal;HPM_P1;HPM_P2
2022/11/10 00:00:51;;;;;;;11.40;3.15;;;8.70;99.90;;;;;;5077233;28;20044;-43
2022/11/10 00:03:17;;;;;;;8.77;1.80;;;8.70;99.90;;;;;;5077123;28;20055;-43
2022/11/10 00:05:42;;;;;;;9.85;1.83;;;8.80;99.90;;;;;;5076464;28;20055;-43
2022/11/10 00:08:10;;;;;;;11.27;1.98;;;8.70;99.90;;;;;;5077066;28;20052;-43
2022/11/10 00:10:55;;;;;;;11.80;2.30;;;8.70;99.90;;;;;;5077081;28;20117;-43
2022/11/10 00:13:26;;;;;;;16.73;2.20;;;8.80;99.90;;;;;;5077199;28;20040;-43
2022/11/10 00:18:36;;;;;;;13.77;2.65;;;8.70;99.90;;;;;;5076919;28;20119;-43
2022/11/10 00:21:04;;;;;;;15.23;2.17;;;8.70;99.90;;;;;;5076826;28;20052;-43
2022/11/10 00:23:30;;;;;;;15.38;2.63;;;8.70;99.90;;;;;;5075776;28;20407;-43
2022/11/10 00:25:55;;;;;;;19.23;3.17;;;8.80;99.90;;;;;;5075544;28;20044;-43
2022/11/10 00:28:21;;;;;;;12.50;3.22;;;8.80;99.90;;;;;;5075401;28;20048;-43
2022/11/10 00:30:47;;;;;;;24.77;5.03;;;8.80;99.90;;;;;;5075657;28;20064;-43
2022/11/10 00:33:12;;;;;;;16.35;2.50;;;8.90;99.90;;;;;;5076520;28;20041;-43
2022/11/10 00:35:38;;;;;;;13.90;2.55;;;8.90;99.90;;;;;;5077060;28;20492;-44
2022/11/10 00:38:04;;;;;;;14.48;3.05;;;8.80;99.90;;;;;;5076501;28;20052;-44
2022/11/10 00:40:29;;;;;;;13.25;3.05;;;8.90;99.90;;;;;;5076462;28;20063;-43
2022/11/10 00:42:55;;;;;;;11.43;3.67;;;9.00;99.90;;;;;;5075164;28;20079;-43
2022/11/10 00:45:21;;;;;;;11.65;2.55;;;8.80;99.90;;;;;;5076237;28;20098;-43
2022/11/10 00:47:46;;;;;;;14.70;3.10;;;8.90;99.90;;;;;;5076350;28;20044;-43
2022/11/10 00:50:12;;;;;;;10.38;3.72;;;8.80;99.90;;;;;;5076358;28;20455;-43
2022/11/10 00:52:38;;;;;;;19.90;5.28;;;8.90;99.90;;;;;;5076744;28;20044;-43
2022/11/10 00:55:04;;;;;;;14.27;3.20;;;8.90;99.90;;;;;;5075787;28;20053;-43
2022/11/10 00:57:29;;;;;;;15.02;3.05;;;8.90;99.90;;;;;;5075167;28;20462;-43
2022/11/10 00:59:55;;;;;;;17.35;4.07;;;8.90;99.90;;;;;;5076092;28;20047;-43
2022/11/10 01:02:21;;;;;;;17.73;3.15;;;8.80;99.90;;;;;;5041589;28;20424;-43
2022/11/10 01:04:46;;;;;;;20.38;4.15;;;8.90;99.90;;;;;;5076264;28;20052;-43
2022/11/10 01:07:12;;;;;;;15.43;3.63;;;8.70;99.90;;;;;;5075849;28;20048;-43
2022/11/10 01:09:38;;;;;;;20.77;4.65;;;8.80;99.90;;;;;;5074354;28;20258;-43
2022/11/10 01:12:03;;;;;;;10.25;3.08;;;8.80;99.90;;;;;;5074945;28;20048;-43
2022/11/10 01:14:29;;;;;;;20.85;3.95;;;8.80;99.90;;;;;;5075753;28;20466;-43
2022/11/10 01:16:55;;;;;;;15.35;3.20;;;8.80;99.90;;;;;;5075787;28;20075;-43
2022/11/10 01:19:20;;;;;;;17.52;3.83;;;8.60;99.90;;;;;;5076027;28;20066;-43
2022/11/10 01:21:50;;;;;;;19.00;3.97;;;8.70;99.90;;;;;;5076248;28;20373;-43
2022/11/10 01:24:19;;;;;;;17.75;3.20;;;8.70;99.90;;;;;;5074993;28;20048;-43
2022/11/10 01:26:45;;;;;;;17.02;4.38;;;8.80;99.90;;;;;;5075618;28;20041;-43
2022/11/10 01:29:10;;;;;;;21.92;4.80;;;8.70;99.90;;;;;;5074610;28;20097;-43
2022/11/10 01:31:36;;;;;;;23.13;4.35;;;8.80;99.90;;;;;;5075546;28;20087;-43
2022/11/10 01:34:01;;;;;;;19.98;3.38;;;8.60;99.90;;;;;;5075106;28;20478;-43
2022/11/10 01:36:28;;;;;;;16.80;4.18;;;8.80;99.90;;;;;;5075401;28;20055;-42
2022/11/10 01:38:53;;;;;;;15.07;3.63;;;8.60;99.90;;;;;;5075392;28;20048;-42
2022/11/10 01:41:19;;;;;;;15.18;3.92;;;8.70;99.90;;;;;;5075899;28;20416;-42
2022/11/10 01:43:45;;;;;;;15.38;3.70;;;8.70;99.90;;;;;;5074087;28;20036;-42
2022/11/10 01:46:12;;;;;;;16.90;4.20;;;8.70;99.90;;;;;;5073993;28;20049;-43
2022/11/10 01:48:51;;;;;;;16.63;4.63;;;8.60;99.90;;;;;;5075186;28;20055;-43
2022/11/10 01:51:28;;;;;;;25.00;6.38;;;8.70;99.90;;;;;;5075456;28;20052;-42
2022/11/10 01:54:07;;;;;;;15.32;3.92;;;8.60;99.90;;;;;;5075601;28;20047;-43
2022/11/10 01:56:37;;;;;;;17.67;4.07;;;8.60;99.90;;;;;;5075064;28;20471;-43
2022/11/10 01:59:06;;;;;;;21.83;5.45;;;8.80;99.90;;;;;;5074952;28;20048;-42
2022/11/10 02:01:31;;;;;;;16.92;4.32;;;8.60;99.90;;;;;;5075453;28;20084;-42
2022/11/10 02:04:07;;;;;;;17.88;4.18;;;8.80;99.90;;;;;;5073934;28;20096;-43
2022/11/10 02:06:37;;;;;;;27.15;4.85;;;8.60;99.90;;;;;;5072852;28;20506;-43
2022/11/10 02:09:03;;;;;;;25.85;5.32;;;8.80;99.90;;;;;;5074794;28;20410;-43
2022/11/10 02:11:30;;;;;;;15.68;5.45;;;8.80;99.90;;;;;;5074963;28;20048;-43
2022/11/10 02:13:57;;;;;;;17.52;5.53;;;8.90;99.90;;;;;;5075379;28;20417;-43
2022/11/10 02:16:23;;;;;;;19.48;4.70;;;8.70;99.90;;;;;;5057514;28;20493;-43
2022/11/10 02:18:49;;;;;;;25.42;4.90;;;8.80;99.90;;;;;;5057043;28;20052;-43
2022/11/10 02:21:19;;;;;;;17.73;4.57;;;8.90;99.90;;;;;;5074240;28;20071;-43
2022/11/10 02:23:51;;;;;;;22.90;5.22;;;9.00;99.90;;;;;;5057179;28;20057;-43
2022/11/10 02:26:21;;;;;;;22.05;6.03;;;8.90;99.90;;;;;;5074765;28;20052;-42
2022/11/10 02:28:47;;;;;;;18.25;5.25;;;9.00;99.90;;;;;;5074962;28;20059;-43
2022/11/10 02:31:13;;;;;;;17.65;4.75;;;9.00;99.90;;;;;;5073391;28;20044;-43
2022/11/10 02:33:39;;;;;;;19.60;5.85;;;9.00;99.90;;;;;;5073097;28;20044;-42
2022/11/10 02:36:05;;;;;;;23.75;6.07;;;9.00;99.90;;;;;;5074240;28;20041;-42
2022/11/10 02:38:31;;;;;;;17.65;5.18;;;9.00;99.90;;;;;;5074183;28;20131;-43
2022/11/10 02:40:56;;;;;;;18.98;4.90;;;8.80;99.90;;;;;;5073198;28;20048;-42
2022/11/10 02:43:22;;;;;;;19.63;5.35;;;8.90;99.90;;;;;;5073187;28;20040;-42
2022/11/10 02:45:48;;;;;;;21.20;4.97;;;8.90;99.90;;;;;;5072977;28;20040;-42
2022/11/10 02:48:14;;;;;;;17.48;4.32;;;8.80;99.90;;;;;;5074553;28;20044;-42
2022/11/10 02:50:40;;;;;;;22.08;5.57;;;8.90;99.90;;;;;;5074845;28;20083;-42
2022/11/10 02:53:06;;;;;;;25.27;6.45;;;8.90;99.90;;;;;;5073960;28;20040;-42
2022/11/10 02:55:32;;;;;;;14.50;4.70;;;8.80;99.90;;;;;;5073967;28;20087;-42
2022/11/10 02:57:58;;;;;;;24.23;5.28;;;8.70;99.90;;;;;;5073322;28;20126;-42
2022/11/10 03:00:25;;;;;;;18.13;4.90;;;8.90;99.90;;;;;;5074171;28;20106;-43
2022/11/10 03:02:57;;;;;;;18.77;5.68;;;8.90;99.90;;;;;;5073856;28;20123;-42
2022/11/10 03:05:24;;;;;;;17.98;4.95;;;8.70;99.90;;;;;;5072412;28;20557;-43
2022/11/10 03:07:59;;;;;;;20.95;6.25;;;8.90;99.90;;;;;;5073743;28;20510;-43
2022/11/10 03:10:26;;;;;;;24.92;6.18;;;8.80;99.90;;;;;;5072264;28;20096;-43
2022/11/10 03:12:56;;;;;;;22.08;5.35;;;8.80;99.90;;;;;;5072706;28;20375;-42
2022/11/10 03:15:22;;;;;;;22.30;6.25;;;8.90;99.90;;;;;;5073116;28;20135;-43
2022/11/10 03:17:49;;;;;;;28.02;5.47;;;8.70;99.90;;;;;;5074080;28;20083;-43
2022/11/10 03:20:16;;;;;;;24.02;5.32;;;8.80;99.90;;;;;;5074231;28;20044;-43
2022/11/10 03:22:42;;;;;;;19.15;5.45;;;8.80;99.90;;;;;;5073457;28;20482;-43
2022/11/10 03:25:08;;;;;;;16.00;6.53;;;8.80;99.90;;;;;;5073653;28;20063;-42
2022/11/10 03:27:34;;;;;;;21.20;5.60;;;8.70;99.90;;;;;;5073625;28;20068;-43
2022/11/10 03:30:00;;;;;;;18.48;4.68;;;8.90;99.90;;;;;;5072374;28;20122;-43
2022/11/10 03:32:26;;;;;;;23.48;6.07;;;8.90;99.90;;;;;;5074018;28;20048;-43
2022/11/10 03:34:51;;;;;;;27.10;5.38;;;9.00;99.90;;;;;;5074347;28;20052;-43
2022/11/10 03:37:17;;;;;;;20.05;5.93;;;9.00;99.90;;;;;;5073480;28;20134;-43
2022/11/10 03:39:43;;;;;;;23.27;5.88;;;8.90;99.90;;;;;;5074317;28;20111;-43
2022/11/10 03:42:08;;;;;;;24.42;5.25;;;9.00;99.90;;;;;;5073488;28;20406;-43
2022/11/10 03:44:34;;;;;;;23.98;6.35;;;9.10;99.90;;;;;;5074052;28;20448;-43
2022/11/10 03:47:02;;;;;;;29.27;6.10;;;8.90;99.90;;;;;;5074253;28;20520;-43
2022/11/10 03:49:29;;;;;;;21.88;4.97;;;8.80;99.90;;;;;;5073354;28;20482;-43
2022/11/10 03:51:55;;;;;;;21.63;5.07;;;8.90;99.90;;;;;;5073944;28;20105;-43
2022/11/10 03:54:21;;;;;;;22.50;4.90;;;8.90;99.90;;;;;;5073293;28;20433;-43
2022/11/10 03:56:47;;;;;;;24.50;4.97;;;8.90;99.90;;;;;;5073271;28;20040;-43
2022/11/10 03:59:12;;;;;;;17.60;4.30;;;8.90;99.90;;;;;;5073379;28;20102;-43
2022/11/10 04:01:38;;;;;;;20.65;6.22;;;9.00;99.90;;;;;;5072299;28;20048;-43
2022/11/10 04:04:04;;;;;;;21.80;5.38;;;8.90;99.90;;;;;;5074049;28;20569;-43
2022/11/10 04:09:14;;;;;;;22.63;5.32;;;9.00;99.90;;;;;;5073005;28;20060;-43
2022/11/10 04:17:08;;;;;;;30.35;6.18;;;8.90;99.90;;;;;;5073193;28;20055;-43
2022/11/10 04:19:34;;;;;;;31.48;6.88;;;9.00;99.90;;;;;;5073082;28;20048;-43
2022/11/10 04:22:00;;;;;;;22.45;6.40;;;8.90;99.90;;;;;;5073601;28;20084;-43
2022/11/10 04:24:25;;;;;;;20.98;5.57;;;9.10;99.90;;;;;;5072613;28;20051;-43
2022/11/10 04:26:51;;;;;;;21.50;5.97;;;9.20;99.90;;;;;;5073318;28;20094;-43
2022/11/10 04:29:18;;;;;;;23.05;5.72;;;9.20;99.90;;;;;;5072922;28;20462;-43
2022/11/10 04:31:44;;;;;;;22.88;5.28;;;9.20;99.90;;;;;;5076679;28;20079;-43
2022/11/10 04:34:13;;;;;;;22.83;5.88;;;9.20;99.90;;;;;;5077386;28;20080;-43
2022/11/10 04:36:41;;;;;;;24.98;5.10;;;9.20;99.90;;;;;;5077077;28;20079;-43
2022/11/10 04:39:08;;;;;;;23.88;5.78;;;9.20;99.90;;;;;;5076498;28;20051;-43
2022/11/10 04:41:34;;;;;;;25.88;5.38;;;9.30;99.90;;;;;;5075572;28;20104;-44
2022/11/10 04:44:00;;;;;;;29.50;5.63;;;9.30;99.90;;;;;;5076407;28;20040;-43
2022/11/10 04:46:38;;;;;;;21.73;5.55;;;9.30;99.90;;;;;;5075194;28;20044;-43
2022/11/10 04:49:05;;;;;;;24.85;5.45;;;9.40;99.90;;;;;;5076906;28;20075;-43
2022/11/10 04:51:34;;;;;;;18.88;5.00;;;9.40;99.90;;;;;;5076257;28;20053;-43
2022/11/10 04:54:00;;;;;;;18.48;4.80;;;9.40;99.90;;;;;;5075004;28;20444;-43
2022/11/10 04:56:26;;;;;;;20.30;5.90;;;9.30;99.90;;;;;;5075260;28;20131;-43
2022/11/10 04:58:53;;;;;;;20.13;5.45;;;9.50;99.90;;;;;;5076134;28;20049;-43
2022/11/10 05:01:22;;;;;;;23.45;5.88;;;9.50;99.90;;;;;;5075154;28;20041;-43
2022/11/10 05:03:49;;;;;;;19.48;5.90;;;9.50;99.90;;;;;;5076071;28;20473;-43
2022/11/10 05:06:15;;;;;;;21.60;5.20;;;9.50;99.90;;;;;;5074829;28;20051;-43
2022/11/10 05:08:42;;;;;;;22.65;5.45;;;9.50;99.90;;;;;;5075912;28;20098;-42
2022/11/10 05:11:08;;;;;;;29.17;5.38;;;9.40;99.90;;;;;;5076454;28;20056;-43
2022/11/10 05:13:33;;;;;;;20.15;4.93;;;9.50;99.90;;;;;;5075854;28;20114;-43
2022/11/10 05:15:59;;;;;;;26.90;5.93;;;9.50;99.90;;;;;;5076151;28;20045;-43
2022/11/10 05:18:25;;;;;;;24.90;5.50;;;9.50;99.90;;;;;;5074551;28;20478;-43
2022/11/10 05:20:54;;;;;;;17.73;5.10;;;9.40;99.90;;;;;;5074838;28;20078;-43
2022/11/10 05:23:38;;;;;;;25.02;5.00;;;9.40;99.90;;;;;;5076529;28;20047;-44
2022/11/10 05:26:08;;;;;;;25.63;5.25;;;9.50;99.90;;;;;;5074581;28;20494;-43
2022/11/10 05:28:34;;;;;;;24.88;5.13;;;9.50;99.90;;;;;;5075646;28;20040;-43
2022/11/10 05:31:00;;;;;;;17.02;3.50;;;9.50;99.90;;;;;;5075606;28;20509;-43
2022/11/10 05:33:26;;;;;;;24.20;5.03;;;9.50;99.90;;;;;;5075427;28;20052;-43
2022/11/10 05:35:51;;;;;;;21.70;4.22;;;9.50;99.90;;;;;;5075471;28;20127;-43
2022/11/10 05:38:17;;;;;;;23.85;4.88;;;9.60;99.90;;;;;;5075429;28;20048;-43
2022/11/10 05:40:43;;;;;;;31.48;5.78;;;9.60;99.90;;;;;;5074427;28;20169;-43
2022/11/10 05:43:10;;;;;;;18.00;3.75;;;9.50;99.90;;;;;;5074321;28;20045;-43
2022/11/10 05:45:36;;;;;;;20.02;4.63;;;9.60;99.90;;;;;;5075275;28;20109;-43
2022/11/10 05:48:01;;;;;;;28.02;5.93;;;9.50;99.90;;;;;;5075161;28;20123;-43
2022/11/10 05:50:27;;;;;;;24.77;4.53;;;9.50;99.90;;;;;;5074902;28;20488;-43
2022/11/10 05:52:54;;;;;;;21.48;4.75;;;9.60;99.90;;;;;;5075053;28;20051;-43
2022/11/10 05:55:23;;;;;;;24.05;3.75;;;9.50;99.90;;;;;;5074725;28;20044;-43
2022/11/10 05:57:50;;;;;;;29.08;4.78;;;9.60;99.90;;;;;;5074983;28;20052;-43
2022/11/10 06:00:22;;;;;;;21.17;5.22;;;9.50;99.90;;;;;;5073970;28;20506;-43
2022/11/10 06:03:06;;;;;;;25.05;4.60;;;9.60;99.90;;;;;;5075487;28;20056;-42
2022/11/10 06:05:34;;;;;;;25.08;4.65;;;9.50;99.90;;;;;;5075187;28;20437;-43
2022/11/10 06:08:02;;;;;;;25.40;4.88;;;9.60;99.90;;;;;;5074826;28;20067;-42
2022/11/10 06:10:28;;;;;;;17.25;4.03;;;9.70;99.90;;;;;;5073140;28;20066;-44
2022/11/10 06:12:54;;;;;;;31.58;5.47;;;9.70;99.90;;;;;;5074689;28;20092;-42
2022/11/10 06:15:21;;;;;;;20.08;3.97;;;9.70;99.90;;;;;;5075229;28;20151;-44
2022/11/10 06:17:47;;;;;;;17.33;4.13;;;9.70;99.90;;;;;;5073439;28;20040;-43
2022/11/10 06:20:14;;;;;;;20.33;3.90;;;9.70;99.90;;;;;;5073593;28;20091;-43
2022/11/10 06:22:40;;;;;;;16.10;3.45;;;9.60;99.90;;;;;;5074535;28;20101;-43
2022/11/10 06:25:07;;;;;;;20.35;3.60;;;9.70;99.90;;;;;;5074740;28;20051;-42
2022/11/10 06:27:33;;;;;;;23.80;4.05;;;9.50;99.90;;;;;;5074411;28;20044;-43
2022/11/10 06:29:59;;;;;;;26.00;4.50;;;9.50;99.90;;;;;;5074328;28;20036;-43
2022/11/10 06:32:24;;;;;;;16.02;4.03;;;9.50;99.90;;;;;;5074255;28;20098;-42
2022/11/10 06:34:50;;;;;;;21.25;3.85;;;9.50;99.90;;;;;;5074270;28;20040;-42
2022/11/10 06:37:16;;;;;;;16.88;4.00;;;9.50;99.90;;;;;;5074287;28;20091;-43
2022/11/10 06:39:42;;;;;;;23.50;4.28;;;9.50;99.90;;;;;;5074177;28;20055;-42
2022/11/10 06:42:07;;;;;;;27.60;4.60;;;9.60;99.90;;;;;;5074478;28;20109;-42
2022/11/10 06:44:33;;;;;;;31.17;5.30;;;9.60;99.90;;;;;;5074654;28;20072;-43
2022/11/10 06:46:59;;;;;;;24.77;3.92;;;9.70;99.90;;;;;;5056321;28;20082;-42
2022/11/10 06:49:24;;;;;;;19.35;4.28;;;9.70;99.90;;;;;;5074038;28;20490;-42
2022/11/10 06:51:51;;;;;;;22.10;4.22;;;9.50;99.90;;;;;;5055912;28;20048;-42
2022/11/10 06:54:17;;;;;;;22.35;4.15;;;9.70;99.90;;;;;;5074425;28;20186;-42
2022/11/10 06:56:42;;;;;;;26.42;4.20;;;9.60;99.90;;;;;;5073931;28;20086;-43
2022/11/10 06:59:08;;;;;;;20.02;3.22;;;9.70;99.90;;;;;;5073798;28;20052;-42
2022/11/10 07:01:34;;;;;;;23.10;3.75;;;9.70;99.90;;;;;;5072705;28;20668;-42
2022/11/10 07:04:00;;;;;;;23.85;4.35;;;9.80;99.90;;;;;;5073524;28;20076;-42
2022/11/10 07:06:25;;;;;;;25.00;4.55;;;9.70;99.90;;;;;;5074435;28;20374;-42
2022/11/10 07:08:51;;;;;;;24.13;3.60;;;9.80;99.90;;;;;;5073734;28;20087;-43
2022/11/10 07:11:17;;;;;;;22.88;4.32;;;9.80;99.90;;;;;;5074071;28;20136;-43
2022/11/10 07:13:42;;;;;;;16.85;3.53;;;9.80;99.90;;;;;;5074784;28;20540;-42
2022/11/10 07:16:08;;;;;;;27.75;4.63;;;9.80;99.90;;;;;;5073711;28;20501;-42
2022/11/10 07:18:35;;;;;;;22.77;4.07;;;9.90;99.90;;;;;;5072609;28;20048;-43
2022/11/10 07:21:03;;;;;;;17.08;3.22;;;9.90;99.90;;;;;;5073667;28;20500;-43
2022/11/10 07:23:29;;;;;;;25.15;4.63;;;9.90;99.90;;;;;;5072397;28;20375;-42
2022/11/10 07:25:55;;;;;;;27.23;4.05;;;9.80;99.90;;;;;;5073304;28;20557;-43
2022/11/10 07:28:21;;;;;;;29.48;4.85;;;9.80;99.90;;;;;;5073293;28;20509;-42
2022/11/10 07:30:47;;;;;;;21.33;4.10;;;9.80;99.90;;;;;;5073566;28;20045;-42
2022/11/10 07:33:14;;;;;;;24.08;4.47;;;9.70;99.90;;;;;;5073610;28;20048;-42
2022/11/10 07:35:40;;;;;;;29.30;5.28;;;9.70;99.90;;;;;;5074314;28;20067;-42
2022/11/10 07:38:11;;;;;;;17.45;3.83;;;9.70;99.90;;;;;;5073559;28;20045;-42
2022/11/10 07:40:37;;;;;;;23.25;3.97;;;9.70;99.90;;;;;;5074165;28;20052;-42
2022/11/10 07:43:03;;;;;;;20.85;4.43;;;9.70;99.90;;;;;;5073445;28;20036;-42
2022/11/10 07:45:30;;;;;;;19.52;4.25;;;9.70;99.90;;;;;;5073409;28;20080;-42
2022/11/10 07:48:04;;;;;;;22.65;4.88;;;9.60;99.90;;;;;;5072625;28;20048;-42
2022/11/10 07:50:31;;;;;;;21.85;3.72;;;9.60;99.90;;;;;;5074248;28;20041;-42
2022/11/10 07:53:13;;;;;;;28.90;5.93;;;9.60;99.90;;;;;;5071821;28;20536;-42
2022/11/10 07:55:41;;;;;;;21.67;4.55;;;9.70;99.90;;;;;;5073986;28;20131;-41
2022/11/10 07:58:07;;;;;;;20.10;3.85;;;9.70;99.90;;;;;;5072080;28;20466;-42
2022/11/10 08:00:34;;;;;;;17.55;3.92;;;9.70;99.90;;;;;;5073293;28;20094;-42
2022/11/10 08:03:04;;;;;;;32.90;5.40;;;9.70;99.90;;;;;;5073248;28;20465;-42
2022/11/10 08:05:30;;;;;;;24.25;4.88;;;9.70;99.90;;;;;;5076234;28;20048;-42
2022/11/10 08:07:56;;;;;;;22.08;4.90;;;9.90;99.90;;;;;;5077420;28;20040;-41
2022/11/10 08:10:22;;;;;;;30.65;5.22;;;9.90;99.90;;;;;;5075652;28;20525;-42
2022/11/10 08:13:01;;;;;;;20.00;4.78;;;10.00;99.90;;;;;;5076955;28;20075;-41
2022/11/10 08:15:28;;;;;;;27.77;5.50;;;10.10;99.90;;;;;;5077585;28;20453;-42
2022/11/10 08:18:16;;;;;;;35.70;5.55;;;10.20;99.90;;;;;;5077765;28;20076;-42
2022/11/10 08:20:42;;;;;;;26.65;4.93;;;10.30;99.90;;;;;;5077082;28;20399;-41
2022/11/10 08:23:08;;;;;;;23.23;3.65;;;10.50;99.90;;;;;;5076426;28;20387;-41
2022/11/10 08:25:35;;;;;;;24.25;4.43;;;10.40;99.90;;;;;;5076986;28;20044;-42
2022/11/10 08:28:09;;;;;;;40.83;5.80;;;10.50;99.90;;;;;;5077530;28;20367;-40
2022/11/10 08:30:36;;;;;;;31.33;5.03;;;10.60;99.90;;;;;;5076754;28;20082;-42
2022/11/10 08:33:04;;;;;;;21.27;5.13;;;10.70;99.90;;;;;;5076263;28;20471;-42
2022/11/10 08:35:33;;;;;;;22.58;4.32;;;10.70;99.90;;;;;;5076564;28;20048;-40
2022/11/10 08:38:24;;;;;;;28.35;4.63;;;10.80;99.90;;;;;;5076562;28;20040;-40
2022/11/10 08:40:50;;;;;;;21.25;4.72;;;10.80;99.90;;;;;;5076001;28;20049;-41
2022/11/10 08:43:17;;;;;;;22.98;4.47;;;10.80;99.90;;;;;;5076760;28;20044;-41
2022/11/10 08:45:43;;;;;;;25.60;5.60;;;10.70;99.90;;;;;;5076397;28;20046;-41
2022/11/10 08:48:19;;;;;;;18.80;4.00;;;10.80;99.90;;;;;;5076381;28;20055;-41
2022/11/10 08:50:48;;;;;;;23.73;4.70;;;10.80;99.90;;;;;;5077210;28;20051;-40
2022/11/10 08:53:16;;;;;;;24.25;4.82;;;10.80;99.90;;;;;;5075070;28;20063;-41
2022/11/10 08:55:43;;;;;;;25.73;4.88;;;10.90;99.90;;;;;;5076854;28;20045;-39
2022/11/10 08:58:13;;;;;;;20.55;4.68;;;11.00;99.90;;;;;;5075012;28;20051;-40
2022/11/10 09:00:39;;;;;;;24.33;4.25;;;11.00;99.90;;;;;;5076741;28;20190;-41
2022/11/10 09:03:13;;;;;;;26.23;3.97;;;11.10;99.90;;;;;;5075199;28;20530;-41
2022/11/10 09:05:39;;;;;;;22.65;4.47;;;11.10;99.90;;;;;;5076114;28;20042;-41
2022/11/10 09:08:05;;;;;;;26.63;5.25;;;11.20;99.90;;;;;;5076074;28;20044;-40
2022/11/10 09:10:33;;;;;;;19.65;3.50;;;11.20;99.90;;;;;;5074586;28;20086;-41
2022/11/10 09:13:00;;;;;;;26.50;5.07;;;11.40;99.90;;;;;;5078807;28;20437;-40
2022/11/10 09:15:27;;;;;;;21.30;4.70;;;11.40;99.90;;;;;;5094611;28;20048;-41
2022/11/10 09:17:52;;;;;;;18.67;3.22;;;11.40;99.90;;;;;;5078151;28;20088;-38
2022/11/10 09:20:18;;;;;;;20.15;4.13;;;11.50;99.90;;;;;;5096847;28;20071;-39
2022/11/10 09:22:44;;;;;;;25.20;4.18;;;11.50;99.90;;;;;;5095989;28;20518;-37
2022/11/10 09:25:10;;;;;;;28.45;6.15;;;11.60;99.90;;;;;;5096396;28;20048;-40
2022/11/10 09:27:37;;;;;;;24.63;5.82;;;11.60;99.90;;;;;;5096453;28;20052;-40
2022/11/10 09:30:05;;;;;;;27.55;5.60;;;11.60;99.90;;;;;;5094812;28;20083;-40
2022/11/10 09:32:31;;;;;;;19.40;4.25;;;11.70;99.90;;;;;;5095679;28;20044;-39
2022/11/10 09:34:57;;;;;;;21.73;4.70;;;11.80;99.90;;;;;;5095692;28;20059;-38
2022/11/10 09:37:23;;;;;;;24.38;4.75;;;11.90;99.90;;;;;;5094550;28;20055;-40
2022/11/10 09:39:49;;;;;;;24.95;5.20;;;11.90;99.90;;;;;;5096204;28;20039;-37
2022/11/10 09:42:40;;;;;;;21.67;5.10;;;11.90;99.90;;;;;;5095630;28;20079;-39
2022/11/10 09:45:25;;;;;;;27.80;5.70;;;11.90;99.90;;;;;;5094889;28;20057;-36
2022/11/10 09:48:14;;;;;;;18.98;5.20;;;11.90;99.90;;;;;;5096024;28;20051;-35
2022/11/10 09:50:54;;;;;;;20.92;4.75;;;11.90;99.90;;;;;;5096081;28;20048;-36
2022/11/10 09:53:36;;;;;;;26.20;5.85;;;11.90;99.90;;;;;;5095974;28;20051;-37
2022/11/10 09:56:04;;;;;;;22.50;4.75;;;11.90;99.90;;;;;;5095366;28;20505;-36
2022/11/10 09:58:38;;;;;;;23.75;5.35;;;11.90;99.90;;;;;;5095301;28;20481;-35
2022/11/10 10:01:25;;;;;;;23.65;4.85;;;11.90;99.90;;;;;;5095275;28;20052;-39
2022/11/10 10:04:02;;;;;;;21.25;5.45;;;11.90;99.90;;;;;;5095192;28;20048;-38
2022/11/10 10:06:28;;;;;;;21.70;6.20;;;11.90;99.90;;;;;;5095683;28;20055;-36
2022/11/10 10:09:21;;;;;;;23.02;5.18;;;12.10;99.90;;;;;;5094241;28;20052;-39
2022/11/10 10:12:11;;;;;;;20.13;5.47;;;12.20;99.90;;;;;;5093829;28;20086;-34
2022/11/10 10:15:10;;;;;;;30.88;7.25;;;12.40;99.90;;;;;;5094911;28;20080;-39
2022/11/10 10:18:20;;;;;;;30.58;6.03;;;12.40;99.90;;;;;;5094876;28;20546;-34
2022/11/10 10:21:28;;;;;;;25.80;5.38;;;12.40;99.90;;;;;;5094873;28;20048;-36
2022/11/10 10:23:57;;;;;;;24.50;5.00;;;12.40;99.90;;;;;;5094439;28;20490;-37
2022/11/10 10:26:32;;;;;;;21.02;4.50;;;12.30;99.90;;;;;;5093976;28;20427;-36
2022/11/10 10:29:09;;;;;;;19.23;4.25;;;12.20;99.90;;;;;;5094594;28;20094;-39
2022/11/10 10:31:39;;;;;;;20.17;5.15;;;12.20;99.90;;;;;;5094677;28;20052;-35
2022/11/10 10:34:12;;;;;;;23.30;5.82;;;12.20;99.90;;;;;;5094586;28;20486;-36
2022/11/10 10:36:38;;;;;;;25.38;5.32;;;12.10;99.90;;;;;;5095172;28;20094;-35
2022/11/10 10:39:15;;;;;;;28.52;6.25;;;12.10;99.90;;;;;;5094726;28;20083;-35
2022/11/10 10:41:44;;;;;;;21.77;4.38;;;12.20;99.90;;;;;;5095109;28;20048;-34
2022/11/10 10:44:16;;;;;;;20.15;4.00;;;12.20;99.90;;;;;;5094107;28;20093;-35
2022/11/10 10:46:55;;;;;;;23.35;4.55;;;12.20;99.90;;;;;;5094477;28;20058;-35
2022/11/10 10:49:29;;;;;;;17.08;4.55;;;12.30;99.90;;;;;;5094967;28;20044;-34
2022/11/10 10:52:05;;;;;;;20.73;4.47;;;12.40;99.90;;;;;;5094332;28;20048;-35
2022/11/10 10:54:33;;;;;;;18.25;3.80;;;12.60;99.90;;;;;;5094259;28;20054;-36
2022/11/10 10:57:19;;;;;;;23.50;3.97;;;12.70;99.90;;;;;;5093061;28;20047;-34
2022/11/10 10:59:45;;;;;;;20.92;4.57;;;12.70;99.90;;;;;;5093948;28;20485;-38
2022/11/10 11:02:39;;;;;;;21.30;4.90;;;12.80;99.90;;;;;;5094613;28;20047;-34
2022/11/10 11:05:17;;;;;;;26.55;3.90;;;12.90;99.90;;;;;;5084252;28;20063;-36
2022/11/10 11:08:00;;;;;;;18.02;3.80;;;13.00;99.90;;;;;;5094028;28;20046;-34
2022/11/10 11:10:30;;;;;;;21.30;3.47;;;13.00;99.90;;;;;;5093675;28;20390;-34
2022/11/10 11:13:22;;;;;;;18.13;4.72;;;13.10;99.90;;;;;;5093499;28;20093;-37
2022/11/10 11:16:02;;;;;;;29.58;4.55;;;13.10;99.90;;;;;;5094337;28;20421;-34
2022/11/10 11:18:30;;;;;;;23.63;4.22;;;13.00;99.90;;;;;;5093980;28;20052;-35
2022/11/10 11:21:14;;;;;;;27.92;4.85;;;13.10;99.90;;;;;;5093964;28;20089;-34
2022/11/10 11:24:05;;;;;;;22.02;4.78;;;13.10;99.90;;;;;;5094410;28;20036;-33
2022/11/10 11:26:36;;;;;;;21.00;4.20;;;13.20;99.90;;;;;;5094708;28;20063;-34
2022/11/10 11:29:18;;;;;;;27.77;5.57;;;13.20;99.90;;;;;;5093818;28;20106;-35
2022/11/10 11:31:47;;;;;;;17.77;3.60;;;13.30;99.90;;;;;;5093306;28;20413;-35
2022/11/10 11:34:52;;;;;;;15.93;3.33;;;13.30;99.90;;;;;;5093616;28;20547;-34
2022/11/10 11:37:31;;;;;;;20.98;3.63;;;13.30;99.90;;;;;;5093729;28;20410;-33
2022/11/10 11:40:11;;;;;;;15.65;4.35;;;13.30;99.90;;;;;;5097744;28;20474;-33
2022/11/10 11:43:04;;;;;;;23.65;4.20;;;13.30;99.90;;;;;;5098814;28;20044;-32
2022/11/10 11:45:50;;;;;;;23.42;3.85;;;13.20;99.90;;;;;;5097864;28;20397;-32
2022/11/10 11:48:32;;;;;;;18.75;3.55;;;13.20;99.90;;;;;;5097404;28;20052;-34
2022/11/10 11:51:04;;;;;;;18.83;3.70;;;13.20;99.90;;;;;;5096803;28;20056;-33
2022/11/10 11:53:35;;;;;;;14.07;3.05;;;13.20;99.90;;;;;;5098269;28;20051;-33
2022/11/10 11:56:36;;;;;;;14.57;3.05;;;13.20;99.90;;;;;;5098285;28;20048;-33
2022/11/10 11:59:11;;;;;;;23.10;3.42;;;13.30;99.90;;;;;;5074946;28;20107;-34
2022/11/10 12:01:49;;;;;;;15.02;2.40;;;13.20;99.90;;;;;;5094232;28;20109;-33
2022/11/10 12:04:29;;;;;;;26.02;5.28;;;13.20;99.90;;;;;;5097545;28;20044;-34
2022/11/10 12:07:08;;;;;;;17.67;3.72;;;13.20;99.90;;;;;;5097990;28;20120;-33
2022/11/10 12:09:49;;;;;;;21.40;4.38;;;13.20;99.90;;;;;;5097373;28;20123;-35
2022/11/10 12:12:50;;;;;;;17.67;4.13;;;13.30;99.90;;;;;;5096051;28;20048;-32
2022/11/10 12:15:25;;;;;;;17.73;3.38;;;13.20;99.90;;;;;;5097321;28;20048;-33
2022/11/10 12:17:59;;;;;;;18.75;3.83;;;13.20;99.90;;;;;;5097282;28;20482;-33
2022/11/10 12:20:38;;;;;;;22.00;3.13;;;13.10;99.90;;;;;;5097211;28;20040;-34
2022/11/10 12:23:19;;;;;;;16.52;2.67;;;13.00;99.90;;;;;;5097165;28;20087;-32
2022/11/10 12:26:05;;;;;;;23.33;3.53;;;12.90;99.90;;;;;;5097078;28;20048;-33
2022/11/10 12:28:36;;;;;;;22.55;3.72;;;12.90;99.90;;;;;;5097056;28;20051;-32
2022/11/10 12:31:07;;;;;;;24.48;4.25;;;12.90;99.90;;;;;;5097015;28;20052;-33
2022/11/10 12:33:44;;;;;;;23.92;5.05;;;12.90;99.90;;;;;;5096892;28;20040;-33
2022/11/10 12:36:16;;;;;;;20.45;2.95;;;12.90;99.90;;;;;;5096919;28;20128;-36
2022/11/10 12:38:50;;;;;;;21.50;3.58;;;13.00;99.90;;;;;;5095808;28;20047;-34
2022/11/10 12:41:19;;;;;;;25.40;3.88;;;13.00;99.90;;;;;;5096865;28;20048;-34
2022/11/10 12:44:04;;;;;;;14.75;2.97;;;13.00;99.90;;;;;;5097577;28;20040;-32
2022/11/10 12:46:29;;;;;;;21.85;3.33;;;13.00;99.90;;;;;;5097306;28;20040;-33
2022/11/10 12:49:18;;;;;;;18.00;3.30;;;13.00;99.90;;;;;;5096503;28;20105;-33
2022/11/10 12:52:06;;;;;;;19.85;3.33;;;13.00;99.90;;;;;;5096351;28;20435;-33
2022/11/10 12:54:34;;;;;;;24.52;3.53;;;13.00;99.90;;;;;;5096468;28;20044;-34
2022/11/10 12:57:15;;;;;;;13.77;2.60;;;13.00;99.90;;;;;;5095505;28;20055;-33
2022/11/10 13:00:00;;;;;;;25.33;3.47;;;13.00;99.90;;;;;;5096507;28;20051;-33
2022/11/10 13:02:29;;;;;;;20.70;3.45;;;13.00;99.90;;;;;;5095808;28;20078;-35
2022/11/10 13:05:13;;;;;;;12.48;2.35;;;13.10;99.90;;;;;;5096360;28;20062;-33
2022/11/10 13:07:47;;;;;;;25.48;3.53;;;13.10;99.90;;;;;;5096325;28;20052;-33
2022/11/10 13:10:23;;;;;;;17.05;3.45;;;13.10;99.90;;;;;;5096199;28;20040;-33